Time;durP1;ratioP1;P1;durP2;ratioP2;P2;SDS_P1;SDS_P2;PMS_P1;PMS_P2;Temp;Humidity;BMP_temperature;BMP_pressure;BME280_temperature;BME280_humidity;BME280_pressure;Samples;Min_cycle;Max_cycle;Signal;HPM_P1;HPM_P2
2022/08/22 00:02:01;;;;;;;;;;;21.40;52.70;;;;;;490207;242;1278;-50
2022/08/22 00:04:02;;;;;;;;;;;21.40;52.80;;;;;;490129;242;1237;-50
2022/08/22 00:06:03;;;;;;;;;;;21.40;52.80;;;;;;489816;242;1264;-50
2022/08/22 00:08:06;;;;;;;;;;;21.40;52.70;;;;;;490276;242;1307;-49
2022/08/22 00:10:06;;;;;;;;;;;21.40;52.70;;;;;;489782;242;2228;-50
2022/08/22 00:12:07;;;;;;;;;;;21.40;52.80;;;;;;490284;242;1134;-49
2022/08/22 00:14:09;;;;;;;;;;;21.40;52.80;;;;;;490321;242;1274;-50
2022/08/22 00:16:10;;;;;;;;;;;21.40;52.80;;;;;;490288;242;1218;-50
2022/08/22 00:18:11;;;;;;;;;;;21.40;52.80;;;;;;489845;242;1327;-49
2022/08/22 00:20:13;;;;;;;;;;;21.40;52.80;;;;;;489840;242;2189;-50
2022/08/22 00:22:14;;;;;;;;;;;21.40;52.80;;;;;;490280;242;1257;-50
2022/08/22 00:24:15;;;;;;;;;;;21.40;52.80;;;;;;490080;242;1143;-50
2022/08/22 00:26:17;;;;;;;;;;;21.40;52.70;;;;;;490329;242;1026;-50
2022/08/22 00:28:18;;;;;;;;;;;21.40;52.80;;;;;;490338;242;1082;-50
2022/08/22 00:30:19;;;;;;;;;;;21.40;52.70;;;;;;489853;242;1279;-50
2022/08/22 00:32:21;;;;;;;;;;;21.40;52.80;;;;;;490328;242;1322;-50
2022/08/22 00:34:22;;;;;;;;;;;21.40;52.80;;;;;;490308;242;1286;-50
2022/08/22 00:36:23;;;;;;;;;;;21.40;52.70;;;;;;490329;242;1279;-50
2022/08/22 00:38:25;;;;;;;;;;;21.50;52.80;;;;;;490296;242;1321;-50
2022/08/22 00:40:26;;;;;;;;;;;21.40;52.70;;;;;;489861;242;2189;-50
2022/08/22 00:42:28;;;;;;;;;;;21.40;52.80;;;;;;490305;242;1284;-50
2022/08/22 00:44:29;;;;;;;;;;;21.40;52.80;;;;;;490260;242;2172;-50
2022/08/22 00:46:30;;;;;;;;;;;21.40;52.80;;;;;;490294;242;1202;-50
2022/08/22 00:48:31;;;;;;;;;;;21.40;52.80;;;;;;490309;242;1323;-50
2022/08/22 00:50:33;;;;;;;;;;;21.40;52.80;;;;;;490281;242;1278;-50
2022/08/22 00:52:34;;;;;;;;;;;21.40;52.70;;;;;;489853;242;1302;-50
2022/08/22 00:54:35;;;;;;;;;;;21.40;52.70;;;;;;490077;242;1253;-50
2022/08/22 00:56:37;;;;;;;;;;;21.40;52.70;;;;;;490307;242;1164;-50
2022/08/22 00:58:38;;;;;;;;;;;21.40;52.80;;;;;;490295;242;1296;-50
2022/08/22 01:00:40;;;;;;;;;;;21.40;52.80;;;;;;490291;242;2142;-50
2022/08/22 01:02:41;;;;;;;;;;;21.40;52.80;;;;;;489855;242;1302;-50
2022/08/22 01:04:42;;;;;;;;;;;21.50;52.70;;;;;;489962;242;1233;-50
2022/08/22 01:06:43;;;;;;;;;;;21.40;52.70;;;;;;490225;242;1239;-50
2022/08/22 01:08:45;;;;;;;;;;;21.40;52.80;;;;;;490016;242;1059;-51
2022/08/22 01:10:46;;;;;;;;;;;21.50;52.80;;;;;;489854;242;1170;-50
2022/08/22 01:12:47;;;;;;;;;;;21.40;52.70;;;;;;489861;242;1105;-50
2022/08/22 01:14:49;;;;;;;;;;;21.50;52.80;;;;;;490305;242;1037;-51
2022/08/22 01:16:50;;;;;;;;;;;21.50;52.80;;;;;;490061;242;1497;-50
2022/08/22 01:18:51;;;;;;;;;;;21.50;52.80;;;;;;490230;242;1047;-50
2022/08/22 01:20:53;;;;;;;;;;;21.40;52.70;;;;;;489848;242;2193;-51
2022/08/22 01:22:54;;;;;;;;;;;21.50;52.70;;;;;;490300;242;1102;-50
2022/08/22 01:27:14;;;;;;;;;;;21.50;52.70;;;;;;489844;241;1284;-50
2022/08/22 01:29:16;;;;;;;;;;;21.50;52.70;;;;;;489861;242;1074;-50
2022/08/22 01:31:17;;;;;;;;;;;21.50;52.70;;;;;;490297;242;1119;-50
2022/08/22 01:33:19;;;;;;;;;;;21.50;52.70;;;;;;490321;242;1068;-50
2022/08/22 01:35:20;;;;;;;;;;;21.50;52.80;;;;;;490316;242;1065;-50
2022/08/22 01:37:21;;;;;;;;;;;21.50;52.80;;;;;;489846;242;1354;-50
2022/08/22 01:39:22;;;;;;;;;;;21.50;52.80;;;;;;489833;242;2153;-50
2022/08/22 01:41:24;;;;;;;;;;;21.50;52.80;;;;;;489848;242;1251;-50
2022/08/22 01:43:25;;;;;;;;;;;21.50;52.80;;;;;;490197;242;1075;-50
2022/08/22 01:45:26;;;;;;;;;;;21.50;52.80;;;;;;490320;242;1106;-50
2022/08/22 01:47:28;;;;;;;;;;;21.40;52.70;;;;;;490323;242;1154;-50
2022/08/22 01:49:29;;;;;;;;;;;21.50;52.80;;;;;;490189;242;1047;-50
2022/08/22 01:51:30;;;;;;;;;;;21.50;52.80;;;;;;490324;242;1201;-50
2022/08/22 01:53:32;;;;;;;;;;;21.50;52.80;;;;;;490220;242;1058;-50
2022/08/22 01:55:33;;;;;;;;;;;21.50;52.80;;;;;;490101;242;1221;-50
2022/08/22 01:57:34;;;;;;;;;;;21.40;52.70;;;;;;490325;242;1386;-50
2022/08/22 01:59:36;;;;;;;;;;;21.50;52.80;;;;;;490141;242;2169;-50
2022/08/22 02:01:37;;;;;;;;;;;21.50;52.90;;;;;;490285;242;1371;-51
2022/08/22 02:03:39;;;;;;;;;;;21.50;52.80;;;;;;490305;242;1228;-50
2022/08/22 02:05:40;;;;;;;;;;;21.50;52.80;;;;;;489847;242;1340;-50
2022/08/22 02:07:42;;;;;;;;;;;21.50;52.70;;;;;;489838;242;1319;-50
2022/08/22 02:09:43;;;;;;;;;;;21.50;52.80;;;;;;489950;242;1307;-50
2022/08/22 02:11:44;;;;;;;;;;;21.50;52.80;;;;;;489841;242;1263;-50
2022/08/22 02:13:46;;;;;;;;;;;21.50;52.80;;;;;;490283;242;1285;-50
2022/08/22 02:15:47;;;;;;;;;;;21.50;52.70;;;;;;490264;242;1288;-50
2022/08/22 02:17:48;;;;;;;;;;;21.50;52.80;;;;;;490019;242;1314;-50
2022/08/22 02:19:49;;;;;;;;;;;21.50;52.80;;;;;;489832;242;2161;-50
2022/08/22 02:21:52;;;;;;;;;;;21.50;52.80;;;;;;490264;242;1316;-50
2022/08/22 02:23:52;;;;;;;;;;;21.50;52.80;;;;;;489781;242;2059;-50
2022/08/22 02:25:53;;;;;;;;;;;21.50;52.80;;;;;;490065;242;1345;-50
2022/08/22 02:27:56;;;;;;;;;;;21.50;52.80;;;;;;490218;242;1248;-50
2022/08/22 02:29:56;;;;;;;;;;;21.50;52.90;;;;;;489977;242;2255;-50
2022/08/22 02:31:57;;;;;;;;;;;21.50;52.80;;;;;;489823;242;1290;-51
2022/08/22 02:34:00;;;;;;;;;;;21.50;52.80;;;;;;489807;242;1287;-50
2022/08/22 02:36:00;;;;;;;;;;;21.50;52.80;;;;;;489833;242;2105;-50
2022/08/22 02:38:02;;;;;;;;;;;21.50;52.80;;;;;;490314;242;1259;-50
2022/08/22 02:40:03;;;;;;;;;;;21.50;52.70;;;;;;490266;242;2162;-50
2022/08/22 02:42:05;;;;;;;;;;;21.50;52.80;;;;;;489914;242;1268;-50
2022/08/22 02:44:06;;;;;;;;;;;21.50;52.70;;;;;;489867;242;1061;-50
2022/08/22 02:46:07;;;;;;;;;;;21.50;52.80;;;;;;490251;242;1100;-50
2022/08/22 02:48:09;;;;;;;;;;;21.50;52.90;;;;;;490319;242;1065;-50
2022/08/22 02:50:10;;;;;;;;;;;21.50;52.80;;;;;;490312;242;1055;-50
2022/08/22 02:52:18;;;;;;;;;;;21.50;52.80;;;;;;490321;242;1406;-50
2022/08/22 02:54:20;;;;;;;;;;;21.50;52.80;;;;;;489858;242;1130;-50
2022/08/22 02:56:21;;;;;;;;;;;21.50;52.80;;;;;;490100;242;1124;-50
2022/08/22 02:58:22;;;;;;;;;;;21.50;52.80;;;;;;490315;242;1028;-50
2022/08/22 03:00:25;;;;;;;;;;;21.50;52.90;;;;;;490123;242;2153;-50
2022/08/22 03:02:26;;;;;;;;;;;21.50;52.90;;;;;;490332;242;2484;-50
2022/08/22 03:04:26;;;;;;;;;;;21.50;52.80;;;;;;489964;242;2218;-50
2022/08/22 03:06:28;;;;;;;;;;;21.50;52.80;;;;;;489910;242;1248;-50
2022/08/22 03:08:30;;;;;;;;;;;21.50;52.90;;;;;;490261;242;1051;-51
2022/08/22 03:10:33;;;;;;;;;;;21.50;52.80;;;;;;490032;242;1188;-50
2022/08/22 03:12:32;;;;;;;;;;;21.50;52.80;;;;;;489877;242;2326;-50
2022/08/22 03:14:34;;;;;;;;;;;21.50;52.90;;;;;;490297;242;1094;-50
2022/08/22 03:16:35;;;;;;;;;;;21.50;52.80;;;;;;489989;242;2229;-50
2022/08/22 03:18:36;;;;;;;;;;;21.50;52.80;;;;;;490286;242;1227;-50
2022/08/22 03:20:37;;;;;;;;;;;21.50;52.70;;;;;;490286;242;2206;-50
2022/08/22 03:22:39;;;;;;;;;;;21.60;52.80;;;;;;490290;242;1281;-50
2022/08/22 03:24:40;;;;;;;;;;;21.50;52.70;;;;;;490265;242;1283;-50
2022/08/22 03:26:41;;;;;;;;;;;21.60;52.80;;;;;;490098;242;1319;-50
2022/08/22 03:28:42;;;;;;;;;;;21.50;52.80;;;;;;490273;242;1226;-49
2022/08/22 03:30:44;;;;;;;;;;;21.50;52.80;;;;;;490262;242;1255;-50
2022/08/22 03:32:45;;;;;;;;;;;21.50;52.80;;;;;;490147;242;1263;-50
2022/08/22 03:34:47;;;;;;;;;;;21.50;52.70;;;;;;489994;242;1261;-50
2022/08/22 03:36:48;;;;;;;;;;;21.60;52.80;;;;;;490280;242;1360;-50
2022/08/22 03:38:49;;;;;;;;;;;21.50;52.80;;;;;;490254;242;1172;-50
2022/08/22 03:40:51;;;;;;;;;;;21.60;52.80;;;;;;489809;242;2208;-50
2022/08/22 03:42:52;;;;;;;;;;;21.50;52.80;;;;;;489872;242;1263;-50
2022/08/22 03:44:53;;;;;;;;;;;21.50;52.80;;;;;;489802;242;1342;-50
2022/08/22 03:46:55;;;;;;;;;;;21.50;52.80;;;;;;490248;242;1236;-50
2022/08/22 03:48:56;;;;;;;;;;;21.50;52.90;;;;;;490263;242;1317;-50
2022/08/22 03:50:57;;;;;;;;;;;21.50;52.90;;;;;;490252;242;1426;-50
2022/08/22 03:53:08;;;;;;;;;;;21.50;52.90;;;;;;490184;242;1294;-49
2022/08/22 03:55:09;;;;;;;;;;;21.50;52.90;;;;;;490181;242;1271;-50
2022/08/22 03:57:10;;;;;;;;;;;21.50;52.80;;;;;;490038;242;1305;-50
2022/08/22 03:59:12;;;;;;;;;;;21.50;52.90;;;;;;490248;242;1303;-50
2022/08/22 04:01:13;;;;;;;;;;;21.50;52.90;;;;;;489736;242;2182;-50
2022/08/22 04:03:15;;;;;;;;;;;21.50;52.80;;;;;;490234;242;1293;-49
2022/08/22 04:05:16;;;;;;;;;;;21.50;52.90;;;;;;489795;242;2360;-50
2022/08/22 04:07:18;;;;;;;;;;;21.50;52.80;;;;;;490246;242;1282;-50
2022/08/22 04:09:18;;;;;;;;;;;21.50;52.90;;;;;;490039;242;2258;-50
2022/08/22 04:11:21;;;;;;;;;;;21.50;52.80;;;;;;490246;242;1341;-50
2022/08/22 04:13:22;;;;;;;;;;;21.50;52.90;;;;;;489793;242;1614;-50
2022/08/22 04:15:23;;;;;;;;;;;21.60;52.90;;;;;;490289;242;2375;-50
2022/08/22 04:17:24;;;;;;;;;;;21.60;52.90;;;;;;490227;242;1349;-49
2022/08/22 04:19:26;;;;;;;;;;;21.60;52.90;;;;;;490255;242;1259;-50
2022/08/22 04:21:27;;;;;;;;;;;21.50;52.80;;;;;;490047;242;2337;-50
2022/08/22 04:23:28;;;;;;;;;;;21.50;52.80;;;;;;490201;242;1202;-50
2022/08/22 04:25:30;;;;;;;;;;;21.50;52.80;;;;;;490277;242;1111;-50
2022/08/22 04:27:31;;;;;;;;;;;21.50;52.90;;;;;;489998;242;1262;-50
2022/08/22 04:29:32;;;;;;;;;;;21.60;52.90;;;;;;489839;242;1144;-50
2022/08/22 04:31:34;;;;;;;;;;;21.60;52.90;;;;;;490252;242;1183;-50
2022/08/22 04:33:35;;;;;;;;;;;21.50;52.90;;;;;;490280;242;1374;-50
2022/08/22 04:35:36;;;;;;;;;;;21.50;52.90;;;;;;490250;242;1133;-50
2022/08/22 04:37:38;;;;;;;;;;;21.60;52.90;;;;;;490022;242;1142;-49
2022/08/22 04:39:39;;;;;;;;;;;21.50;52.80;;;;;;490018;242;1083;-50
2022/08/22 04:41:40;;;;;;;;;;;21.60;52.90;;;;;;490266;242;2197;-50
2022/08/22 04:43:42;;;;;;;;;;;21.60;52.90;;;;;;489761;242;1194;-50
2022/08/22 04:45:43;;;;;;;;;;;21.60;52.90;;;;;;489810;242;1117;-50
2022/08/22 04:47:44;;;;;;;;;;;21.60;52.90;;;;;;489809;242;1180;-50
2022/08/22 04:49:46;;;;;;;;;;;21.50;52.90;;;;;;490260;242;1070;-50
2022/08/22 04:51:47;;;;;;;;;;;21.50;52.90;;;;;;489907;242;1105;-50
2022/08/22 04:53:48;;;;;;;;;;;21.50;52.90;;;;;;489788;242;1264;-50
2022/08/22 04:55:50;;;;;;;;;;;21.60;52.90;;;;;;490202;242;1165;-50
2022/08/22 04:57:51;;;;;;;;;;;21.50;52.90;;;;;;490083;242;1170;-50
2022/08/22 04:59:52;;;;;;;;;;;21.60;52.90;;;;;;490299;242;1181;-50
2022/08/22 05:01:54;;;;;;;;;;;21.50;52.90;;;;;;490221;242;2205;-50
2022/08/22 05:03:56;;;;;;;;;;;21.50;52.90;;;;;;490247;242;1220;-51
2022/08/22 05:05:56;;;;;;;;;;;21.60;53.00;;;;;;489977;242;2153;-51
2022/08/22 05:07:58;;;;;;;;;;;21.60;52.90;;;;;;489910;242;1236;-50
2022/08/22 05:09:59;;;;;;;;;;;21.60;52.90;;;;;;489808;242;1180;-50
2022/08/22 05:12:01;;;;;;;;;;;21.60;52.90;;;;;;489810;242;1207;-50
2022/08/22 05:14:02;;;;;;;;;;;21.60;52.90;;;;;;489762;242;1432;-49
2022/08/22 05:16:03;;;;;;;;;;;21.60;52.90;;;;;;489800;242;2165;-50
2022/08/22 05:18:05;;;;;;;;;;;21.50;52.90;;;;;;490317;242;1045;-50
2022/08/22 05:20:07;;;;;;;;;;;21.60;52.90;;;;;;490277;242;1085;-50
2022/08/22 05:22:08;;;;;;;;;;;21.60;53.00;;;;;;490235;242;2189;-50
2022/08/22 05:24:09;;;;;;;;;;;21.60;53.00;;;;;;490237;242;1139;-50
2022/08/22 05:26:11;;;;;;;;;;;21.60;52.90;;;;;;490192;242;1195;-49
2022/08/22 05:28:12;;;;;;;;;;;21.60;52.90;;;;;;489868;242;1195;-50
2022/08/22 05:30:15;;;;;;;;;;;21.60;52.80;;;;;;490081;242;1242;-50
2022/08/22 05:32:15;;;;;;;;;;;21.70;52.30;;;;;;490071;242;2412;-50
2022/08/22 05:34:16;;;;;;;;;;;21.70;52.20;;;;;;489939;242;1320;-50
2022/08/22 05:36:17;;;;;;;;;;;21.70;52.20;;;;;;489857;242;1427;-49
2022/08/22 05:38:19;;;;;;;;;;;21.80;52.00;;;;;;490266;242;1103;-50
2022/08/22 05:40:20;;;;;;;;;;;21.80;51.70;;;;;;489860;242;1102;-50
2022/08/22 05:42:21;;;;;;;;;;;21.80;51.50;;;;;;489966;242;2173;-50
2022/08/22 05:44:23;;;;;;;;;;;21.80;51.30;;;;;;489817;242;1309;-50
2022/08/22 05:46:24;;;;;;;;;;;21.80;51.30;;;;;;490155;242;1424;-50
2022/08/22 05:48:25;;;;;;;;;;;21.80;51.10;;;;;;490225;242;1237;-50
2022/08/22 05:50:34;;;;;;;;;;;21.80;51.00;;;;;;490198;242;1296;-50
2022/08/22 05:52:35;;;;;;;;;;;21.90;50.90;;;;;;489673;242;1372;-50
2022/08/22 05:54:36;;;;;;;;;;;21.90;50.70;;;;;;489981;242;1370;-50
2022/08/22 05:56:38;;;;;;;;;;;21.90;50.70;;;;;;489710;242;1268;-50
2022/08/22 05:58:40;;;;;;;;;;;21.90;50.50;;;;;;489744;242;1211;-50
2022/08/22 06:00:40;;;;;;;;;;;21.90;50.50;;;;;;489819;242;1575;-50
2022/08/22 06:02:42;;;;;;;;;;;21.90;50.40;;;;;;489912;242;2158;-51
2022/08/22 06:04:43;;;;;;;;;;;21.90;50.30;;;;;;489983;242;1626;-50
2022/08/22 06:06:44;;;;;;;;;;;21.90;50.20;;;;;;489946;242;1262;-51
2022/08/22 06:08:46;;;;;;;;;;;21.90;50.10;;;;;;489740;242;1183;-51
2022/08/22 06:10:47;;;;;;;;;;;21.90;50.00;;;;;;489768;242;1112;-50
2022/08/22 06:12:48;;;;;;;;;;;22.00;50.00;;;;;;489807;242;1234;-51
2022/08/22 06:14:50;;;;;;;;;;;21.90;49.90;;;;;;489863;242;1200;-50
2022/08/22 06:16:51;;;;;;;;;;;22.00;49.90;;;;;;489762;242;1268;-50
2022/08/22 06:18:52;;;;;;;;;;;21.90;49.80;;;;;;489844;242;1118;-50
2022/08/22 06:20:54;;;;;;;;;;;22.00;49.70;;;;;;489937;242;1146;-50
2022/08/22 06:22:55;;;;;;;;;;;21.90;49.70;;;;;;489320;242;2205;-50
2022/08/22 06:24:56;;;;;;;;;;;22.00;49.70;;;;;;489843;242;1287;-50
2022/08/22 06:26:58;;;;;;;;;;;22.00;49.60;;;;;;489790;242;1173;-50
2022/08/22 06:28:59;;;;;;;;;;;21.90;49.50;;;;;;489810;242;1316;-50
2022/08/22 06:31:01;;;;;;;;;;;22.00;49.50;;;;;;489721;242;1211;-50
2022/08/22 06:33:02;;;;;;;;;;;22.00;49.50;;;;;;489854;242;1311;-50
2022/08/22 06:35:03;;;;;;;;;;;22.00;49.50;;;;;;489741;242;1292;-51
2022/08/22 06:37:04;;;;;;;;;;;22.00;49.40;;;;;;489145;242;1145;-50
2022/08/22 06:39:05;;;;;;;;;;;21.90;49.30;;;;;;489546;242;1168;-49
2022/08/22 06:41:07;;;;;;;;;;;22.00;49.30;;;;;;489377;242;1237;-50
2022/08/22 06:43:08;;;;;;;;;;;22.00;49.30;;;;;;489607;242;2138;-50
2022/08/22 06:45:09;;;;;;;;;;;22.00;49.20;;;;;;489768;242;1158;-50
2022/08/22 06:47:11;;;;;;;;;;;22.00;49.10;;;;;;489530;242;1160;-50
2022/08/22 06:49:12;;;;;;;;;;;22.00;49.10;;;;;;489741;242;1341;-51
2022/08/22 06:51:13;;;;;;;;;;;21.90;49.00;;;;;;489698;242;1303;-50
2022/08/22 06:53:15;;;;;;;;;;;22.00;49.00;;;;;;490050;242;1183;-50
2022/08/22 06:55:16;;;;;;;;;;;22.00;48.90;;;;;;489920;242;1304;-50
2022/08/22 06:57:18;;;;;;;;;;;22.00;49.00;;;;;;489885;242;1289;-50
2022/08/22 06:59:19;;;;;;;;;;;22.00;48.90;;;;;;489834;242;1262;-50
2022/08/22 07:01:20;;;;;;;;;;;22.00;48.90;;;;;;489789;242;2154;-50
2022/08/22 07:03:22;;;;;;;;;;;22.00;48.80;;;;;;489437;242;1155;-50
2022/08/22 07:05:23;;;;;;;;;;;22.00;48.80;;;;;;489763;242;1279;-50
2022/08/22 07:07:24;;;;;;;;;;;22.00;48.80;;;;;;489639;242;1207;-50
2022/08/22 07:09:26;;;;;;;;;;;22.00;48.70;;;;;;489780;242;1170;-50
2022/08/22 07:11:27;;;;;;;;;;;22.00;48.70;;;;;;490007;242;1239;-50
2022/08/22 07:13:28;;;;;;;;;;;22.00;48.70;;;;;;489485;242;1283;-50
2022/08/22 07:15:31;;;;;;;;;;;22.00;48.70;;;;;;489574;242;1294;-50
2022/08/22 07:17:32;;;;;;;;;;;22.00;48.70;;;;;;489536;242;1261;-50
2022/08/22 07:19:34;;;;;;;;;;;22.00;48.60;;;;;;489875;242;1211;-50
2022/08/22 07:21:35;;;;;;;;;;;22.00;48.60;;;;;;489540;242;2189;-50
2022/08/22 07:23:37;;;;;;;;;;;22.00;48.60;;;;;;489618;242;1209;-50
2022/08/22 07:25:38;;;;;;;;;;;22.00;48.40;;;;;;489606;242;1083;-50
2022/08/22 07:27:39;;;;;;;;;;;22.00;48.40;;;;;;489836;242;1210;-50
2022/08/22 07:29:41;;;;;;;;;;;22.00;48.40;;;;;;489314;242;1276;-49
2022/08/22 07:31:42;;;;;;;;;;;22.00;48.40;;;;;;489212;242;2209;-50
2022/08/22 07:33:43;;;;;;;;;;;22.00;48.30;;;;;;489790;242;1171;-50
2022/08/22 07:35:44;;;;;;;;;;;22.00;48.30;;;;;;489969;242;1103;-50
2022/08/22 07:37:46;;;;;;;;;;;22.00;48.30;;;;;;489862;242;1122;-50
2022/08/22 07:39:48;;;;;;;;;;;22.00;48.30;;;;;;489449;242;1197;-50
2022/08/22 07:41:49;;;;;;;;;;;22.00;48.20;;;;;;489477;242;2173;-50
2022/08/22 07:43:50;;;;;;;;;;;22.00;48.10;;;;;;489770;242;1312;-50
2022/08/22 07:45:51;;;;;;;;;;;22.00;48.20;;;;;;489577;242;1199;-50
2022/08/22 07:47:53;;;;;;;;;;;22.00;48.10;;;;;;489701;242;1243;-50
2022/08/22 07:49:54;;;;;;;;;;;22.00;48.10;;;;;;489494;242;1305;-50
2022/08/22 07:51:55;;;;;;;;;;;22.00;48.00;;;;;;489542;242;1295;-50
2022/08/22 07:53:57;;;;;;;;;;;22.00;48.00;;;;;;489873;242;1204;-50
2022/08/22 07:55:58;;;;;;;;;;;22.00;48.00;;;;;;490091;242;1281;-50
2022/08/22 07:58:00;;;;;;;;;;;22.00;48.00;;;;;;489976;242;1202;-50
2022/08/22 08:00:02;;;;;;;;;;;22.00;47.90;;;;;;489850;242;1216;-50
2022/08/22 08:02:02;;;;;;;;;;;22.00;47.90;;;;;;489596;242;2201;-50
2022/08/22 08:04:03;;;;;;;;;;;22.00;47.80;;;;;;489378;242;1174;-50
2022/08/22 08:06:05;;;;;;;;;;;22.00;47.80;;;;;;489751;242;1199;-50
2022/08/22 08:08:07;;;;;;;;;;;22.00;47.80;;;;;;489623;242;1158;-50
2022/08/22 08:10:08;;;;;;;;;;;22.00;47.70;;;;;;489600;242;1234;-50
2022/08/22 08:12:09;;;;;;;;;;;22.00;47.70;;;;;;489866;242;1198;-50
2022/08/22 08:14:10;;;;;;;;;;;22.00;47.70;;;;;;489680;242;1174;-49
2022/08/22 08:16:12;;;;;;;;;;;22.00;47.70;;;;;;489726;242;1175;-50
2022/08/22 08:18:18;;;;;;;;;;;22.00;47.70;;;;;;489772;242;2423;-50
2022/08/22 08:20:14;;;;;;;;;;;22.00;47.60;;;;;;489646;242;2183;-50
2022/08/22 08:22:16;;;;;;;;;;;22.00;47.60;;;;;;489459;242;2161;-49
2022/08/22 08:24:17;;;;;;;;;;;22.00;47.60;;;;;;489406;242;1174;-49
2022/08/22 08:26:18;;;;;;;;;;;22.00;47.50;;;;;;489746;242;1073;-50
2022/08/22 08:28:36;;;;;;;;;;;22.00;47.40;;;;;;489557;242;1310;-50
2022/08/22 08:30:36;;;;;;;;;;;22.00;47.40;;;;;;489480;242;1457;-50
2022/08/22 08:32:38;;;;;;;;;;;22.00;47.40;;;;;;466328;242;25023;-50
2022/08/22 08:34:39;;;;;;;;;;;22.00;47.40;;;;;;464255;255;1299;-50
2022/08/22 08:36:40;;;;;;;;;;;22.00;47.40;;;;;;456994;260;1300;-50
2022/08/22 08:38:42;;;;;;;;;;;22.00;47.40;;;;;;464020;256;1270;-50
2022/08/22 08:40:43;;;;;;;;;;;22.00;47.30;;;;;;464158;255;1203;-50
2022/08/22 08:45:04;;;;;;;;;;;22.00;47.20;;;;;;463985;257;1265;-50
2022/08/22 08:47:05;;;;;;;;;;;22.00;47.20;;;;;;463992;256;1247;-50
2022/08/22 08:49:07;;;;;;;;;;;22.00;47.20;;;;;;463881;255;1193;-50
2022/08/22 08:51:14;;;;;;;;;;;22.00;47.10;;;;;;464060;255;1187;-50
2022/08/22 08:53:16;;;;;;;;;;;22.00;47.10;;;;;;463939;255;1185;-49
2022/08/22 08:55:17;;;;;;;;;;;22.00;47.10;;;;;;463879;255;1068;-50
2022/08/22 08:57:18;;;;;;;;;;;22.00;47.10;;;;;;464253;255;1318;-50
2022/08/22 08:59:20;;;;;;;;;;;22.00;47.00;;;;;;463757;256;1226;-49
2022/08/22 09:01:21;;;;;;;;;;;22.00;47.00;;;;;;463986;255;1285;-48
2022/08/22 09:03:22;;;;;;;;;;;22.10;47.10;;;;;;463848;255;2195;-48
2022/08/22 09:05:24;;;;;;;;;;;22.10;47.00;;;;;;463819;255;1166;-48
2022/08/22 09:07:25;;;;;;;;;;;22.00;47.00;;;;;;463852;256;1217;-48
2022/08/22 09:09:27;;;;;;;;;;;22.10;47.00;;;;;;463865;256;1348;-49
2022/08/22 09:11:29;;;;;;;;;;;22.10;46.90;;;;;;463960;256;2279;-49
2022/08/22 09:13:29;;;;;;;;;;;22.10;46.90;;;;;;464295;255;2507;-48
2022/08/22 09:15:30;;;;;;;;;;;22.10;46.90;;;;;;463992;256;1216;-48
2022/08/22 09:17:32;;;;;;;;;;;22.10;46.90;;;;;;463922;255;1263;-49
2022/08/22 09:19:33;;;;;;;;;;;22.10;46.80;;;;;;464016;256;1087;-48
2022/08/22 09:21:34;;;;;;;;;;;22.10;46.80;;;;;;464018;255;1180;-49
2022/08/22 09:23:36;;;;;;;;;;;22.20;46.80;;;;;;463984;256;2182;-49
2022/08/22 09:25:37;;;;;;;;;;;22.20;46.70;;;;;;463867;256;1101;-49
2022/08/22 09:27:38;;;;;;;;;;;22.20;46.70;;;;;;464244;255;1215;-49
2022/08/22 09:29:41;;;;;;;;;;;22.20;46.70;;;;;;463975;255;1255;-49
2022/08/22 09:31:42;;;;;;;;;;;22.20;46.70;;;;;;463920;256;1229;-49
2022/08/22 09:33:44;;;;;;;;;;;22.20;46.50;;;;;;464009;255;1214;-48
2022/08/22 09:35:45;;;;;;;;;;;22.20;46.50;;;;;;463939;256;1289;-48
2022/08/22 09:37:46;;;;;;;;;;;22.20;46.40;;;;;;464151;255;1323;-48
2022/08/22 09:39:48;;;;;;;;;;;22.20;46.40;;;;;;463886;255;1288;-49
2022/08/22 09:41:49;;;;;;;;;;;22.20;46.40;;;;;;463801;256;1268;-48
2022/08/22 09:43:50;;;;;;;;;;;22.20;46.30;;;;;;463980;256;2175;-48
2022/08/22 09:45:52;;;;;;;;;;;22.30;46.30;;;;;;464087;255;1277;-49
2022/08/22 09:47:53;;;;;;;;;;;22.30;46.30;;;;;;464234;255;1212;-48
2022/08/22 09:49:54;;;;;;;;;;;22.30;46.30;;;;;;463917;256;1161;-49
2022/08/22 09:51:56;;;;;;;;;;;22.30;46.30;;;;;;463995;256;1356;-49
2022/08/22 09:53:57;;;;;;;;;;;22.30;46.20;;;;;;464181;255;1228;-49
2022/08/22 09:55:58;;;;;;;;;;;22.30;46.20;;;;;;463890;255;1079;-48
2022/08/22 09:58:00;;;;;;;;;;;22.30;46.10;;;;;;464269;255;1182;-49
2022/08/22 10:00:01;;;;;;;;;;;22.30;46.10;;;;;;463933;256;1227;-48
2022/08/22 10:02:02;;;;;;;;;;;22.30;46.20;;;;;;463948;255;1239;-49
2022/08/22 10:04:04;;;;;;;;;;;22.30;46.20;;;;;;463902;256;2147;-49
2022/08/22 10:06:05;;;;;;;;;;;22.30;46.20;;;;;;464034;256;1222;-49
2022/08/22 10:08:06;;;;;;;;;;;22.30;46.20;;;;;;464167;255;1338;-49
2022/08/22 10:10:08;;;;;;;;;;;22.30;46.20;;;;;;463989;256;1313;-48
2022/08/22 10:12:09;;;;;;;;;;;22.30;46.20;;;;;;463903;256;1277;-49
2022/08/22 10:14:11;;;;;;;;;;;22.30;46.20;;;;;;464056;255;1159;-48
2022/08/22 10:16:12;;;;;;;;;;;22.40;46.30;;;;;;464400;255;1345;-48
2022/08/22 10:18:14;;;;;;;;;;;22.30;46.20;;;;;;464066;255;1259;-48
2022/08/22 10:20:15;;;;;;;;;;;22.40;46.20;;;;;;464098;255;1072;-49
2022/08/22 10:22:16;;;;;;;;;;;22.40;46.20;;;;;;464336;255;1176;-48
2022/08/22 10:24:18;;;;;;;;;;;22.30;46.20;;;;;;464048;255;2213;-48
2022/08/22 10:26:19;;;;;;;;;;;22.40;46.20;;;;;;464225;255;1132;-49
2022/08/22 10:28:20;;;;;;;;;;;22.30;46.20;;;;;;464150;255;1159;-49
2022/08/22 10:30:22;;;;;;;;;;;22.40;46.20;;;;;;464068;256;1166;-48
2022/08/22 10:32:26;;;;;;;;;;;22.40;46.10;;;;;;464116;256;1081;-49
2022/08/22 10:34:26;;;;;;;;;;;22.40;46.10;;;;;;464091;256;2000;-49
2022/08/22 10:36:27;;;;;;;;;;;22.40;46.10;;;;;;464065;255;1259;-48
2022/08/22 10:38:30;;;;;;;;;;;22.40;46.10;;;;;;464249;255;1177;-48
2022/08/22 10:40:30;;;;;;;;;;;22.40;46.10;;;;;;464044;256;1984;-49
2022/08/22 10:42:31;;;;;;;;;;;22.40;46.10;;;;;;464248;255;1097;-48
2022/08/22 10:44:32;;;;;;;;;;;22.40;46.00;;;;;;464140;255;2206;-48
2022/08/22 10:46:34;;;;;;;;;;;22.40;46.00;;;;;;464116;256;1294;-49
2022/08/22 10:48:35;;;;;;;;;;;22.40;46.00;;;;;;464103;256;1120;-48
2022/08/22 10:50:37;;;;;;;;;;;22.40;46.00;;;;;;464557;255;1195;-48
2022/08/22 10:52:38;;;;;;;;;;;22.40;45.90;;;;;;464091;255;1091;-48
2022/08/22 10:54:39;;;;;;;;;;;22.40;45.90;;;;;;463980;255;1289;-48
2022/08/22 10:56:41;;;;;;;;;;;22.40;45.90;;;;;;463921;255;1299;-48
2022/08/22 10:58:42;;;;;;;;;;;22.40;45.80;;;;;;463818;255;1305;-48
2022/08/22 11:00:44;;;;;;;;;;;22.40;45.90;;;;;;463707;255;1219;-49
2022/08/22 11:02:45;;;;;;;;;;;22.40;45.80;;;;;;463801;256;2159;-48
2022/08/22 11:04:46;;;;;;;;;;;22.40;45.80;;;;;;463946;256;1207;-48
2022/08/22 11:06:47;;;;;;;;;;;22.40;45.70;;;;;;464259;255;1206;-49
2022/08/22 11:08:49;;;;;;;;;;;22.40;45.80;;;;;;463950;256;1448;-48
2022/08/22 11:10:50;;;;;;;;;;;22.40;45.70;;;;;;464001;255;1543;-48
2022/08/22 11:12:52;;;;;;;;;;;22.40;45.70;;;;;;463906;255;1338;-48
2022/08/22 11:14:53;;;;;;;;;;;22.40;45.70;;;;;;464229;255;1216;-48
2022/08/22 11:16:54;;;;;;;;;;;22.40;45.70;;;;;;464028;255;1248;-48
2022/08/22 11:18:55;;;;;;;;;;;22.50;45.60;;;;;;463912;256;1180;-49
2022/08/22 11:20:57;;;;;;;;;;;22.40;45.60;;;;;;463912;256;1206;-49
2022/08/22 11:22:58;;;;;;;;;;;22.40;45.60;;;;;;463945;256;2219;-48
2022/08/22 11:24:59;;;;;;;;;;;22.50;45.60;;;;;;463838;256;1247;-48
2022/08/22 11:27:01;;;;;;;;;;;22.50;45.50;;;;;;463965;255;1296;-48
2022/08/22 11:29:02;;;;;;;;;;;22.50;45.60;;;;;;463994;255;1320;-48
2022/08/22 11:31:03;;;;;;;;;;;22.50;45.50;;;;;;463888;255;1186;-49
2022/08/22 11:33:05;;;;;;;;;;;22.50;45.50;;;;;;463876;256;1695;-49
2022/08/22 11:35:06;;;;;;;;;;;22.40;45.50;;;;;;464146;255;1079;-48
2022/08/22 11:37:07;;;;;;;;;;;22.50;45.50;;;;;;463927;255;1088;-49
2022/08/22 11:39:09;;;;;;;;;;;22.50;45.40;;;;;;463848;256;1098;-48
2022/08/22 11:41:11;;;;;;;;;;;22.50;45.40;;;;;;464235;255;1282;-49
2022/08/22 11:43:11;;;;;;;;;;;22.50;45.30;;;;;;463873;256;2284;-49
2022/08/22 11:45:13;;;;;;;;;;;22.50;45.40;;;;;;463804;256;1087;-49
2022/08/22 11:47:14;;;;;;;;;;;22.50;45.30;;;;;;463752;256;1190;-49
2022/08/22 11:49:15;;;;;;;;;;;22.40;45.30;;;;;;463649;256;1275;-49
2022/08/22 11:51:17;;;;;;;;;;;22.50;45.30;;;;;;463702;255;1296;-49
2022/08/22 11:53:18;;;;;;;;;;;22.40;45.20;;;;;;463640;256;1296;-49
2022/08/22 11:55:19;;;;;;;;;;;22.40;45.20;;;;;;463800;255;1304;-49
2022/08/22 11:57:21;;;;;;;;;;;22.40;45.30;;;;;;463642;256;1268;-49
2022/08/22 11:59:22;;;;;;;;;;;22.40;45.20;;;;;;463691;255;1269;-50
2022/08/22 12:01:24;;;;;;;;;;;22.40;45.20;;;;;;463572;256;1216;-49
2022/08/22 12:03:25;;;;;;;;;;;22.40;45.20;;;;;;463624;256;2531;-49